createdAt,value
2018-05-29T00:00:17.832Z,10.27
2018-05-29T00:02:43.958Z,8.90
2018-05-29T00:05:10.054Z,9.83
2018-05-29T00:07:36.177Z,10.03
2018-05-29T00:10:02.288Z,9.13
2018-05-29T00:12:28.537Z,9.50
2018-05-29T00:14:54.645Z,9.87
2018-05-29T00:17:21.013Z,11.33
2018-05-29T00:19:47.445Z,9.50
2018-05-29T00:22:13.785Z,9.80
2018-05-29T00:24:39.912Z,10.13
2018-05-29T00:27:06.072Z,9.30
2018-05-29T00:29:32.206Z,9.53
2018-05-29T00:31:58.325Z,10.10
2018-05-29T00:34:24.854Z,9.57
2018-05-29T00:36:50.974Z,10.77
2018-05-29T00:39:17.087Z,9.00
2018-05-29T00:41:43.499Z,10.20
2018-05-29T00:44:09.593Z,10.50
2018-05-29T00:46:35.695Z,9.90
2018-05-29T00:49:02.086Z,9.67
2018-05-29T00:51:28.211Z,10.10
2018-05-29T00:53:54.745Z,9.30
2018-05-29T00:56:21.177Z,8.43
2018-05-29T00:58:47.289Z,9.57
2018-05-29T01:01:13.422Z,9.67
2018-05-29T01:03:39.525Z,10.70
2018-05-29T01:06:06.054Z,11.10
2018-05-29T01:08:32.178Z,10.80
2018-05-29T01:10:58.298Z,10.87
2018-05-29T01:13:24.669Z,10.00
2018-05-29T01:15:50.780Z,10.13
2018-05-29T01:18:16.922Z,10.53
2018-05-29T01:20:43.025Z,10.43
2018-05-29T01:23:09.158Z,9.93
2018-05-29T01:25:35.283Z,10.17
2018-05-29T01:28:01.968Z,9.83
2018-05-29T01:30:28.337Z,10.20
2018-05-29T01:32:54.669Z,9.43
2018-05-29T01:35:20.834Z,11.20
2018-05-29T01:37:47.185Z,10.77
2018-05-29T01:40:13.517Z,10.60
2018-05-29T01:42:40.325Z,9.93
2018-05-29T01:45:06.421Z,10.60
2018-05-29T01:47:32.543Z,11.10
2018-05-29T01:49:58.778Z,10.37
2018-05-29T01:52:24.886Z,10.60
2018-05-29T01:54:51.005Z,10.40
2018-05-29T01:57:17.150Z,10.60
2018-05-29T01:59:43.319Z,10.27
2018-05-29T02:02:09.443Z,10.00
2018-05-29T02:04:35.579Z,10.93
2018-05-29T02:07:01.748Z,9.97
2018-05-29T02:09:27.871Z,11.20
2018-05-29T02:11:54.491Z,11.37
2018-05-29T02:14:20.842Z,10.23
2018-05-29T02:16:46.961Z,10.50
2018-05-29T02:19:13.134Z,10.40
2018-05-29T02:21:39.241Z,11.93
2018-05-29T02:24:05.390Z,12.17
2018-05-29T02:26:31.524Z,12.07
2018-05-29T02:28:57.625Z,11.30
2018-05-29T02:31:24.223Z,11.60
2018-05-29T02:33:50.374Z,11.63
2018-05-29T02:36:16.508Z,11.47
2018-05-29T02:38:42.654Z,11.53
2018-05-29T02:41:08.789Z,11.80
2018-05-29T02:43:34.890Z,11.10
2018-05-29T02:46:01.028Z,9.70
2018-05-29T02:48:27.180Z,10.07
2018-05-29T02:50:53.317Z,9.47
2018-05-29T02:53:19.453Z,9.93
2018-05-29T02:55:45.981Z,10.90
2018-05-29T02:58:12.088Z,9.70
2018-05-29T03:00:38.185Z,10.10
2018-05-29T03:03:04.321Z,10.63
2018-05-29T03:05:30.427Z,10.83
2018-05-29T03:07:56.666Z,9.80
2018-05-29T03:10:22.724Z,10.80
2018-05-29T03:12:48.838Z,9.80
2018-05-29T03:15:14.969Z,10.97
2018-05-29T03:17:41.340Z,10.20
2018-05-29T03:20:07.813Z,10.23
2018-05-29T03:22:33.925Z,9.67
2018-05-29T03:25:00.663Z,10.57
2018-05-29T03:27:27.070Z,11.10
2018-05-29T03:29:53.459Z,10.97
2018-05-29T03:32:20.098Z,10.57
2018-05-29T03:34:46.551Z,10.07
2018-05-29T03:37:13.040Z,10.90
2018-05-29T03:39:39.517Z,10.50
2018-05-29T03:42:06.010Z,10.33
2018-05-29T03:44:32.342Z,10.13
2018-05-29T03:46:58.913Z,11.10
2018-05-29T03:49:25.285Z,11.20
2018-05-29T03:51:51.614Z,10.60
2018-05-29T03:54:18.092Z,10.10
2018-05-29T03:56:44.590Z,10.30
2018-05-29T03:59:11.035Z,10.23
2018-05-29T04:01:37.561Z,9.77
2018-05-29T04:04:04.216Z,10.40
2018-05-29T04:06:30.661Z,9.87
2018-05-29T04:08:57.505Z,11.03
2018-05-29T04:11:23.866Z,9.43
2018-05-29T04:13:50.454Z,9.30
2018-05-29T04:16:17.022Z,10.90
2018-05-29T04:18:43.564Z,10.37
2018-05-29T04:21:09.682Z,10.03
2018-05-29T04:23:35.791Z,10.20
2018-05-29T04:26:01.949Z,10.27
2018-05-29T04:28:28.206Z,10.13
2018-05-29T04:30:54.379Z,10.00
2018-05-29T04:33:20.536Z,10.23
2018-05-29T04:35:46.640Z,9.70
2018-05-29T04:38:12.790Z,8.73
2018-05-29T04:40:38.953Z,9.57
2018-05-29T04:43:05.045Z,10.00
2018-05-29T04:45:31.158Z,8.07
2018-05-29T04:47:57.524Z,9.90
2018-05-29T04:50:24.034Z,8.87
2018-05-29T04:52:50.137Z,8.60
2018-05-29T04:55:16.486Z,9.03
2018-05-29T04:57:42.981Z,8.90
2018-05-29T05:00:09.092Z,9.63
2018-05-29T05:02:35.243Z,8.93
2018-05-29T05:05:01.362Z,9.00
2018-05-29T05:07:27.550Z,9.53
2018-05-29T05:09:53.664Z,9.80
2018-05-29T05:12:20.012Z,10.00
2018-05-29T05:14:46.156Z,10.37
2018-05-29T05:17:13.903Z,10.67
2018-05-29T05:19:40.044Z,10.37
2018-05-29T05:22:06.209Z,9.97
2018-05-29T05:24:32.381Z,10.40
2018-05-29T05:26:58.524Z,10.40
2018-05-29T05:29:24.628Z,9.40
2018-05-29T05:31:50.996Z,9.80
2018-05-29T05:34:17.519Z,10.00
2018-05-29T05:36:43.624Z,9.87
2018-05-29T05:39:10.359Z,9.53
2018-05-29T05:41:36.486Z,9.40
2018-05-29T05:44:02.598Z,10.47
2018-05-29T05:46:28.734Z,8.83
2018-05-29T05:48:54.878Z,9.40
2018-05-29T05:51:21.067Z,8.73
2018-05-29T05:53:47.260Z,7.87
2018-05-29T05:56:13.475Z,7.90
2018-05-29T05:58:39.989Z,7.13
2018-05-29T06:01:06.143Z,7.80
2018-05-29T06:03:32.259Z,8.30
2018-05-29T06:05:58.390Z,7.50
2018-05-29T06:08:24.498Z,8.13
2018-05-29T06:10:50.630Z,6.97
2018-05-29T06:13:16.739Z,7.30
2018-05-29T06:15:43.167Z,6.67
2018-05-29T06:18:09.492Z,7.77
2018-05-29T06:20:35.639Z,7.43
2018-05-29T06:23:01.893Z,6.40
2018-05-29T06:25:28.011Z,6.23
2018-05-29T06:27:54.141Z,6.60
2018-05-29T06:30:20.514Z,7.23
2018-05-29T06:32:46.896Z,7.13
2018-05-29T06:35:13.491Z,6.40
2018-05-29T06:37:39.579Z,7.10
2018-05-29T06:40:05.689Z,6.33
2018-05-29T06:42:32.121Z,6.23
2018-05-29T06:44:58.301Z,6.30
2018-05-29T06:47:24.398Z,6.90
2018-05-29T06:49:51.045Z,6.47
2018-05-29T06:52:17.225Z,7.00
2018-05-29T06:54:43.334Z,6.47
2018-05-29T06:57:09.713Z,5.97
2018-05-29T06:59:35.834Z,5.97
2018-05-29T07:02:02.201Z,6.10
2018-05-29T07:04:28.327Z,5.90
2018-05-29T07:06:54.841Z,6.90
2018-05-29T07:09:29.075Z,5.50
2018-05-29T07:11:55.212Z,6.30
2018-05-29T07:14:21.684Z,6.23
2018-05-29T07:16:47.798Z,6.23
2018-05-29T07:19:13.914Z,6.57
2018-05-29T07:21:40.106Z,5.90
2018-05-29T07:24:06.217Z,5.93
2018-05-29T07:26:32.474Z,6.40
2018-05-29T07:28:58.588Z,5.77
2018-05-29T07:31:24.730Z,6.30
2018-05-29T07:33:50.921Z,6.17
2018-05-29T07:36:17.126Z,6.50
2018-05-29T07:38:43.269Z,7.17
2018-05-29T07:41:09.375Z,6.67
2018-05-29T07:43:35.949Z,6.03
2018-05-29T07:46:02.052Z,6.40
2018-05-29T07:48:28.181Z,6.20
2018-05-29T07:50:54.312Z,5.87
2018-05-29T07:53:20.451Z,5.87
2018-05-29T07:55:46.700Z,5.20
2018-05-29T07:58:12.816Z,6.00
2018-05-29T08:00:38.945Z,6.20
2018-05-29T08:03:05.181Z,5.77
2018-05-29T08:05:31.535Z,6.70
2018-05-29T08:07:57.664Z,6.97
2018-05-29T08:10:24.154Z,6.10
2018-05-29T08:12:50.258Z,5.47
2018-05-29T08:15:17.492Z,6.00
2018-05-29T08:17:43.644Z,6.63
2018-05-29T08:20:10.437Z,5.87
2018-05-29T08:22:36.529Z,6.53
2018-05-29T08:25:02.655Z,6.13
2018-05-29T08:27:29.169Z,6.27
2018-05-29T08:29:55.289Z,7.43
2018-05-29T08:32:21.415Z,6.10
2018-05-29T08:34:47.674Z,6.53
2018-05-29T08:37:13.976Z,5.73
2018-05-29T08:39:40.153Z,6.40
2018-05-29T08:42:06.276Z,6.80
2018-05-29T08:44:32.389Z,6.27
2018-05-29T08:46:59.272Z,6.67
2018-05-29T08:49:25.406Z,6.47
2018-05-29T08:51:51.511Z,5.83
2018-05-29T08:54:17.649Z,5.70
2018-05-29T08:56:44.087Z,6.37
2018-05-29T08:59:10.238Z,5.90
2018-05-29T09:01:36.646Z,5.73
2018-05-29T09:04:02.880Z,6.53
2018-05-29T09:06:29.005Z,5.93
2018-05-29T09:08:55.117Z,6.03
2018-05-29T09:11:21.717Z,5.60
2018-05-29T09:13:47.845Z,5.47
2018-05-29T09:16:13.956Z,6.37
2018-05-29T09:18:40.091Z,5.43
2018-05-29T09:21:06.195Z,6.37
2018-05-29T09:23:32.333Z,5.93
2018-05-29T09:25:58.488Z,6.40
2018-05-29T09:28:24.605Z,6.60
2018-05-29T09:30:50.957Z,6.03
2018-05-29T09:33:17.543Z,5.93
2018-05-29T09:35:43.648Z,5.67
2018-05-29T09:38:09.794Z,5.60
2018-05-29T09:40:36.148Z,6.13
2018-05-29T09:43:02.290Z,5.83
2018-05-29T09:45:28.808Z,6.43
2018-05-29T09:47:54.917Z,6.60
2018-05-29T09:50:21.012Z,6.00
2018-05-29T09:52:47.183Z,6.10
2018-05-29T09:55:13.439Z,6.30
2018-05-29T09:57:39.570Z,5.70
2018-05-29T10:00:05.749Z,5.37
2018-05-29T10:02:32.286Z,6.77
2018-05-29T10:04:58.389Z,6.00
2018-05-29T10:07:24.730Z,6.17
2018-05-29T10:09:50.852Z,6.60
2018-05-29T10:12:16.961Z,8.90
2018-05-29T10:14:43.113Z,9.80
2018-05-29T10:17:09.265Z,8.77
2018-05-29T10:19:35.637Z,9.97
2018-05-29T10:22:01.739Z,9.00
2018-05-29T10:24:27.861Z,8.83
2018-05-29T10:26:53.970Z,7.90
2018-05-29T10:29:20.531Z,8.13
2018-05-29T10:31:46.626Z,8.53
2018-05-29T10:34:12.806Z,7.00
2018-05-29T10:36:38.998Z,7.50
2018-05-29T10:39:05.158Z,6.97
2018-05-29T10:41:31.251Z,8.70
2018-05-29T10:43:57.401Z,7.60
2018-05-29T10:46:23.542Z,6.53
2018-05-29T10:48:49.690Z,7.30
2018-05-29T10:51:15.776Z,7.30
2018-05-29T10:53:41.901Z,7.37
2018-05-29T10:56:08.037Z,7.30
2018-05-29T10:58:34.250Z,8.40
2018-05-29T11:01:00.370Z,7.67
2018-05-29T11:03:26.472Z,8.03
2018-05-29T11:05:52.603Z,8.03
2018-05-29T11:08:18.761Z,7.60
2018-05-29T11:10:44.957Z,7.97
2018-05-29T11:13:11.727Z,7.23
2018-05-29T11:15:37.815Z,6.67
2018-05-29T11:18:03.925Z,7.53
2018-05-29T11:20:30.068Z,7.13
2018-05-29T11:22:56.188Z,7.23
2018-05-29T11:25:22.663Z,6.80
2018-05-29T11:27:49.230Z,7.60
2018-05-29T11:30:15.326Z,7.70
2018-05-29T11:32:41.466Z,7.03
2018-05-29T11:35:07.623Z,7.10
2018-05-29T11:37:33.757Z,7.93
2018-05-29T11:39:59.903Z,7.43
2018-05-29T11:42:26.556Z,7.73
2018-05-29T11:44:53.005Z,6.90
2018-05-29T11:47:19.114Z,7.20
2018-05-29T11:49:45.254Z,6.73
2018-05-29T11:52:11.682Z,6.43
2018-05-29T11:54:38.258Z,6.50
2018-05-29T11:57:04.753Z,6.90
2018-05-29T11:59:30.850Z,6.37
2018-05-29T12:01:56.948Z,6.90
2018-05-29T12:04:23.745Z,6.90
2018-05-29T12:06:49.835Z,5.50
2018-05-29T12:09:15.929Z,6.60
2018-05-29T12:11:42.450Z,6.40
2018-05-29T12:14:08.552Z,6.50
2018-05-29T12:16:34.989Z,5.83
2018-05-29T12:19:01.112Z,6.20
2018-05-29T12:21:27.546Z,6.80
2018-05-29T12:23:53.681Z,6.10
2018-05-29T12:26:19.785Z,6.40
2018-05-29T12:28:45.930Z,6.37
2018-05-29T12:31:12.357Z,6.40
2018-05-29T12:33:38.445Z,5.73
2018-05-29T12:36:04.918Z,5.60
2018-05-29T12:38:31.025Z,6.00
2018-05-29T12:40:57.473Z,6.00
2018-05-29T12:43:23.593Z,5.47
2018-05-29T12:45:49.721Z,5.60
2018-05-29T12:48:16.157Z,6.30
2018-05-29T12:50:42.269Z,6.80
2018-05-29T12:53:08.430Z,6.40
2018-05-29T12:55:34.523Z,5.70
2018-05-29T12:58:00.629Z,6.30
2018-05-29T13:00:26.773Z,6.17
2018-05-29T13:02:53.118Z,6.27
2018-05-29T13:05:19.497Z,6.80
2018-05-29T13:07:45.593Z,5.90
2018-05-29T13:10:11.721Z,5.87
2018-05-29T13:12:38.644Z,5.90
2018-05-29T13:15:04.800Z,6.73
2018-05-29T13:17:30.890Z,6.60
2018-05-29T13:19:57.329Z,6.17
2018-05-29T13:22:23.484Z,6.73
2018-05-29T13:24:49.599Z,5.87
2018-05-29T13:27:15.709Z,6.07
2018-05-29T13:29:42.273Z,6.40
2018-05-29T13:32:08.389Z,5.90
2018-05-29T13:34:34.509Z,6.00
2018-05-29T13:37:00.663Z,6.03
2018-05-29T13:39:26.862Z,5.93
2018-05-29T13:41:53.294Z,5.83
2018-05-29T13:44:19.405Z,6.07
2018-05-29T13:46:45.517Z,6.20
2018-05-29T13:49:11.834Z,6.27
2018-05-29T13:51:38.191Z,5.80
2018-05-29T13:54:04.354Z,6.10
2018-05-29T13:56:30.898Z,5.30
2018-05-29T13:58:57.010Z,5.57
2018-05-29T14:01:23.119Z,6.00
2018-05-29T14:03:49.275Z,5.87
2018-05-29T14:06:15.401Z,6.00
2018-05-29T14:08:41.925Z,5.50
2018-05-29T14:11:08.037Z,5.73
2018-05-29T14:13:34.174Z,5.43
2018-05-29T14:16:00.314Z,5.07
2018-05-29T14:18:26.837Z,5.50
2018-05-29T14:20:52.946Z,5.10
2018-05-29T14:23:19.162Z,5.53
2018-05-29T14:25:45.378Z,5.60
2018-05-29T14:28:11.474Z,5.10
2018-05-29T14:30:37.705Z,5.20
2018-05-29T14:33:03.814Z,5.40
2018-05-29T14:35:30.188Z,5.90
2018-05-29T14:37:56.323Z,4.93
2018-05-29T14:40:22.478Z,4.40
2018-05-29T14:42:48.877Z,4.23
2018-05-29T14:45:14.977Z,4.73
2018-05-29T14:47:41.579Z,4.10
2018-05-29T14:50:08.070Z,3.83
2018-05-29T14:52:34.198Z,4.50
2018-05-29T14:55:00.764Z,4.17
2018-05-29T14:57:26.865Z,4.03
2018-05-29T14:59:52.968Z,3.87
2018-05-29T15:02:19.109Z,3.90
2018-05-29T15:04:45.205Z,3.90
2018-05-29T15:07:11.341Z,4.10
2018-05-29T15:09:37.457Z,4.77
2018-05-29T15:12:03.705Z,3.90
2018-05-29T15:14:29.817Z,3.83
2018-05-29T15:16:55.934Z,3.57
2018-05-29T15:19:22.075Z,4.03
2018-05-29T15:21:48.415Z,3.83
2018-05-29T15:24:15.236Z,4.20
2018-05-29T15:26:41.699Z,3.60
2018-05-29T15:29:07.805Z,3.73
2018-05-29T15:31:34.524Z,4.83
2018-05-29T15:34:00.969Z,3.87
2018-05-29T15:36:27.153Z,3.97
2018-05-29T15:38:53.290Z,3.70
2018-05-29T15:41:19.660Z,3.53
2018-05-29T15:43:45.797Z,4.40
2018-05-29T15:46:11.914Z,3.53
2018-05-29T15:48:38.497Z,3.70
2018-05-29T15:51:04.640Z,3.80
2018-05-29T15:53:30.757Z,3.53
2018-05-29T15:55:56.903Z,3.10
2018-05-29T15:58:23.030Z,4.37
2018-05-29T16:00:49.480Z,3.60
2018-05-29T16:03:15.661Z,3.87
2018-05-29T16:05:41.780Z,4.00
2018-05-29T16:08:08.104Z,3.33
2018-05-29T16:10:34.231Z,3.20
2018-05-29T16:13:00.415Z,5.90
2018-05-29T16:15:26.579Z,4.60
2018-05-29T16:17:52.712Z,5.47
2018-05-29T16:20:18.797Z,5.70
2018-05-29T16:22:45.025Z,4.73
2018-05-29T16:25:11.478Z,4.80
2018-05-29T16:27:37.735Z,4.80
2018-05-29T16:30:03.902Z,4.30
2018-05-29T16:32:30.368Z,4.13
2018-05-29T16:34:56.508Z,3.50
2018-05-29T16:37:22.614Z,3.93
2018-05-29T16:39:48.987Z,4.30
2018-05-29T16:42:15.483Z,3.50
2018-05-29T16:44:41.585Z,3.70
2018-05-29T16:47:07.948Z,3.73
2018-05-29T16:49:34.856Z,3.73
2018-05-29T16:52:01.013Z,3.80
2018-05-29T16:54:27.316Z,3.57
2018-05-29T16:56:53.434Z,3.63
2018-05-29T16:59:19.537Z,3.70
2018-05-29T17:01:46.337Z,3.40
2018-05-29T17:04:12.448Z,4.20
2018-05-29T17:06:38.562Z,3.93
2018-05-29T17:09:05.013Z,4.60
2018-05-29T17:11:31.123Z,5.50
2018-05-29T17:13:57.809Z,4.73
2018-05-29T17:16:23.910Z,5.10
2018-05-29T17:18:50.012Z,4.57
2018-05-29T17:21:16.560Z,4.13
2018-05-29T17:23:42.819Z,4.17
2018-05-29T17:26:08.947Z,4.87
2018-05-29T17:28:35.178Z,5.27
2018-05-29T17:31:01.309Z,4.17
2018-05-29T17:33:27.446Z,4.17
2018-05-29T17:35:53.830Z,4.87
2018-05-29T17:38:20.006Z,3.87
2018-05-29T17:40:46.308Z,3.97
2018-05-29T17:43:12.574Z,3.70
2018-05-29T17:45:38.681Z,3.70
2018-05-29T17:48:04.777Z,3.90
2018-05-29T17:50:31.212Z,4.57
2018-05-29T17:52:57.333Z,3.50
2018-05-29T17:55:23.427Z,5.00
2018-05-29T17:57:49.570Z,4.20
2018-05-29T18:00:15.683Z,3.53
2018-05-29T18:02:41.838Z,4.77
2018-05-29T18:05:07.954Z,3.87
2018-05-29T18:07:34.197Z,4.03
2018-05-29T18:10:00.341Z,3.73
2018-05-29T18:12:26.683Z,3.80
2018-05-29T18:14:53.234Z,3.93
2018-05-29T18:17:19.366Z,3.57
2018-05-29T18:19:45.531Z,4.07
2018-05-29T18:22:11.707Z,4.03
2018-05-29T18:24:38.085Z,3.63
2018-05-29T18:27:04.254Z,3.27
2018-05-29T18:29:30.365Z,3.93
2018-05-29T18:31:56.494Z,3.50
2018-05-29T18:34:23.132Z,3.53
2018-05-29T18:36:49.238Z,3.97
2018-05-29T18:39:15.341Z,4.57
2018-05-29T18:41:41.510Z,3.60
2018-05-29T18:44:07.624Z,3.37
2018-05-29T18:46:34.036Z,3.43
2018-05-29T18:49:00.196Z,3.40
2018-05-29T18:51:26.411Z,3.70
2018-05-29T18:53:52.673Z,3.97
2018-05-29T18:56:18.796Z,4.10
2018-05-29T18:58:44.956Z,4.77
2018-05-29T19:01:11.253Z,3.33
2018-05-29T19:03:37.427Z,3.73
2018-05-29T19:06:06.733Z,3.57
2018-05-29T19:08:33.076Z,3.40
2018-05-29T19:10:59.300Z,3.30
2018-05-29T19:13:25.480Z,3.43
2018-05-29T19:15:52.009Z,3.43
2018-05-29T19:18:18.386Z,3.27
2018-05-29T19:20:44.512Z,3.30
2018-05-29T19:23:10.749Z,3.60
2018-05-29T19:25:36.893Z,3.43
2018-05-29T19:28:03.661Z,3.70
2018-05-29T19:30:29.808Z,3.53
2018-05-29T19:32:55.956Z,3.53
2018-05-29T19:35:22.482Z,2.97
2018-05-29T19:37:48.587Z,3.50
2018-05-29T19:40:14.696Z,3.53
2018-05-29T19:42:40.849Z,3.37
2018-05-29T19:45:07.016Z,3.33
2018-05-29T19:47:33.269Z,3.40
2018-05-29T19:49:59.467Z,3.50
2018-05-29T19:52:25.762Z,3.43
2018-05-29T19:54:51.932Z,3.43
2018-05-29T19:57:18.049Z,3.60
2018-05-29T19:59:44.369Z,3.40
2018-05-29T20:02:10.512Z,3.33
2018-05-29T20:04:36.685Z,3.53
2018-05-29T20:07:03.023Z,3.60
2018-05-29T20:09:29.184Z,3.30
2018-05-29T20:11:55.430Z,3.57
2018-05-29T20:14:21.560Z,2.97
2018-05-29T20:16:47.965Z,3.43
2018-05-29T20:19:14.141Z,3.80
2018-05-29T20:21:40.285Z,3.63
2018-05-29T20:24:06.901Z,3.87
2018-05-29T20:26:33.078Z,3.67
2018-05-29T20:28:59.192Z,3.60
2018-05-29T20:31:25.404Z,3.50
2018-05-29T20:33:51.609Z,4.23
2018-05-29T20:36:17.777Z,3.00
2018-05-29T20:38:44.136Z,3.10
2018-05-29T20:41:10.285Z,3.37
2018-05-29T20:43:36.571Z,3.73
2018-05-29T20:46:02.691Z,3.40
2018-05-29T20:48:28.796Z,2.97
2018-05-29T20:50:55.394Z,3.37
2018-05-29T20:53:21.591Z,2.67
2018-05-29T20:55:47.696Z,3.43
2018-05-29T20:58:13.945Z,2.93
2018-05-29T21:00:40.172Z,3.83
2018-05-29T21:03:06.517Z,4.00
2018-05-29T21:05:32.984Z,3.60
2018-05-29T21:07:59.112Z,3.37
2018-05-29T21:10:25.237Z,3.80
2018-05-29T21:12:51.909Z,3.63
2018-05-29T21:15:18.068Z,3.73
2018-05-29T21:17:44.172Z,3.43
2018-05-29T21:20:10.345Z,3.77
2018-05-29T21:22:36.445Z,3.43
2018-05-29T21:25:02.594Z,3.83
2018-05-29T21:27:28.694Z,4.03
2018-05-29T21:29:54.837Z,4.10
2018-05-29T21:32:20.945Z,3.50
2018-05-29T21:34:47.136Z,4.87
2018-05-29T21:37:13.500Z,3.20
2018-05-29T21:39:39.649Z,3.67
2018-05-29T21:42:05.887Z,3.83
2018-05-29T21:44:32.283Z,3.80
2018-05-29T21:46:59.312Z,3.37
2018-05-29T21:49:25.473Z,3.57
2018-05-29T21:51:51.633Z,4.20
2018-05-29T21:54:17.825Z,3.67
2018-05-29T21:56:44.156Z,3.57
2018-05-29T21:59:10.282Z,4.03
2018-05-29T22:01:36.507Z,3.40
2018-05-29T22:04:03.206Z,3.70
2018-05-29T22:06:29.551Z,3.27
2018-05-29T22:08:55.671Z,3.10
2018-05-29T22:11:21.835Z,3.70
2018-05-29T22:13:48.003Z,3.70
2018-05-29T22:16:14.266Z,3.80
2018-05-29T22:18:40.386Z,4.10
2018-05-29T22:21:06.499Z,3.30
2018-05-29T22:23:32.654Z,3.23
2018-05-29T22:25:58.789Z,4.13
2018-05-29T22:28:24.921Z,3.10
2018-05-29T22:30:51.681Z,3.63
2018-05-29T22:33:18.013Z,3.37
2018-05-29T22:35:44.123Z,3.70
2018-05-29T22:38:10.327Z,3.57
2018-05-29T22:40:36.441Z,3.33
2018-05-29T22:43:02.554Z,3.30
2018-05-29T22:45:29.141Z,3.20
2018-05-29T22:47:55.284Z,3.17
2018-05-29T22:50:21.418Z,3.20
2018-05-29T22:52:47.586Z,3.57
2018-05-29T22:55:13.716Z,3.77
2018-05-29T22:57:40.238Z,3.50
2018-05-29T23:00:07.678Z,3.90
2018-05-29T23:02:33.779Z,4.10
2018-05-29T23:04:59.922Z,4.43
2018-05-29T23:07:26.404Z,3.10
2018-05-29T23:09:52.520Z,3.57
2018-05-29T23:12:18.622Z,3.63
2018-05-29T23:14:44.905Z,3.40
2018-05-29T23:17:11.047Z,3.60
2018-05-29T23:19:37.191Z,3.17
2018-05-29T23:22:03.293Z,3.13
2018-05-29T23:24:29.432Z,3.67
2018-05-29T23:26:55.546Z,3.70
2018-05-29T23:29:21.733Z,3.80
2018-05-29T23:31:47.872Z,3.30
2018-05-29T23:34:13.984Z,3.30
2018-05-29T23:36:40.118Z,3.40
2018-05-29T23:39:06.292Z,3.67
2018-05-29T23:41:32.427Z,3.33
2018-05-29T23:43:58.776Z,2.90
2018-05-29T23:46:25.176Z,3.40
2018-05-29T23:48:51.338Z,3.60
2018-05-29T23:51:17.584Z,2.63
2018-05-29T23:53:43.733Z,3.03
2018-05-29T23:56:09.932Z,3.00
2018-05-29T23:58:36.072Z,2.70
